PWSweather.com
Personal Weather Stations
Station Observations
ISYDDANM23
Felsted, AabenraaDK 6200

FelstedAabenraaDK 6200

Lat: 54.977066, Lon: 9.507192

Elevation: 135

Station Type: Davis Vantage Pro 2 Plus 24H

http://www.valkaer.dk

High Low Average
Temperature 82.2°F27.9°C 62.3°F16.8°C 72.1°F22.3°C
Dew Point 68.3°F20.2°C 57.2°F14.0°C 62.1°F16.7°C
Winds 9.2 mph 14.8 kmh Calm Calm 4.0 mph SE6.4 kmh SE
Wind Gusts 19.6 mph31.5 kmh -- 7.0 mph11.3 kmh
Humidity 85% 58% 72%
Pressure 30.20 in1022.7 mb 30.07 in1018.3 mb -
Precipitation 0.00 in0.0 mm - -
Hour Temp Dew Point Humidity Winds Wind Gusts Pressure Precip Precip Rate Daily Precip Total
12:00 AM 65.2°F18.4°C 57.8°F14.3°C 77% 6.9 mph SE11.1 kmh SE 12.7 mph20.4 kmh 30.20 in1022.7 mb - 0.00 in0.0 mm 0.00 in0.0 mm
12:10 AM 65.1°F18.4°C 57.7°F14.3°C 77% 5.8 mph SE9.3 kmh SE 12.7 mph20.4 kmh 30.20 in1022.7 mb - 0.00 in0.0 mm 0.00 in0.0 mm
12:15 AM 65.1°F18.4°C 57.7°F14.3°C 77% 8.1 mph SE13.0 kmh SE 12.7 mph20.4 kmh 30.20 in1022.7 mb - 0.00 in0.0 mm 0.00 in0.0 mm
12:20 AM 65.1°F18.4°C 57.7°F14.3°C 77% 8.1 mph SE13.0 kmh SE 11.5 mph18.5 kmh 30.20 in1022.7 mb - 0.00 in0.0 mm 0.00 in0.0 mm
12:25 AM 65.1°F18.4°C 57.7°F14.3°C 77% 8.1 mph SE13.0 kmh SE 11.5 mph18.5 kmh 30.20 in1022.7 mb - 0.00 in0.0 mm 0.00 in0.0 mm
12:30 AM 65.1°F18.4°C 57.7°F14.3°C 77% 9.2 mph SE14.8 kmh SE 12.7 mph20.4 kmh 30.20 in1022.7 mb - 0.00 in0.0 mm 0.00 in0.0 mm
12:35 AM 65.1°F18.4°C 57.7°F14.3°C 77% 5.8 mph SE9.3 kmh SE 10.4 mph16.7 kmh 30.20 in1022.7 mb - 0.00 in0.0 mm 0.00 in0.0 mm
12:40 AM 65.0°F18.3°C 57.6°F14.2°C 77% 8.1 mph SE13.0 kmh SE 13.8 mph22.2 kmh 30.20 in1022.7 mb - 0.00 in0.0 mm 0.00 in0.0 mm
12:45 AM 64.9°F18.3°C 57.9°F14.4°C 78% 8.1 mph SE13.0 kmh SE 10.4 mph16.7 kmh 30.20 in1022.7 mb - 0.00 in0.0 mm 0.00 in0.0 mm
12:50 AM 64.8°F18.2°C 57.8°F14.3°C 78% 8.1 mph SE13.0 kmh SE 11.5 mph18.5 kmh 30.20 in1022.7 mb - 0.00 in0.0 mm 0.00 in0.0 mm
12:55 AM 64.8°F18.2°C 57.8°F14.3°C 78% 9.2 mph SE14.8 kmh SE 12.7 mph20.4 kmh 30.20 in1022.7 mb - 0.00 in0.0 mm 0.00 in0.0 mm
01:00 AM 64.8°F18.2°C 57.7°F14.3°C 78% 6.9 mph ESE11.1 kmh ESE 8.1 mph13.0 kmh 30.20 in1022.7 mb - 0.00 in0.0 mm 0.00 in0.0 mm
01:10 AM 64.5°F18.1°C 57.8°F14.3°C 79% 6.9 mph SE11.1 kmh SE 11.5 mph18.5 kmh 30.20 in1022.7 mb - 0.00 in0.0 mm 0.00 in0.0 mm
01:15 AM 64.4°F18.0°C 57.7°F14.3°C 79% 9.2 mph SE14.8 kmh SE 13.8 mph22.2 kmh 30.20 in1022.7 mb - 0.00 in0.0 mm 0.00 in0.0 mm
01:20 AM 64.4°F18.0°C 57.7°F14.3°C 79% 9.2 mph SE14.8 kmh SE 13.8 mph22.2 kmh 30.19 in1022.4 mb - 0.00 in0.0 mm 0.00 in0.0 mm
01:25 AM 64.3°F17.9°C 57.7°F14.3°C 79% 8.1 mph SE13.0 kmh SE 15.0 mph24.1 kmh 30.19 in1022.4 mb - 0.00 in0.0 mm 0.00 in0.0 mm
01:30 AM 64.1°F17.8°C 57.5°F14.2°C 79% 6.9 mph ESE11.1 kmh ESE 19.6 mph31.5 kmh 30.19 in1022.4 mb - 0.00 in0.0 mm 0.00 in0.0 mm
01:35 AM 64.1°F17.8°C 57.5°F14.2°C 79% 9.2 mph ESE14.8 kmh ESE 12.7 mph20.4 kmh 30.19 in1022.4 mb - 0.00 in0.0 mm 0.00 in0.0 mm
01:40 AM 64.0°F17.8°C 57.4°F14.1°C 79% 6.9 mph SE11.1 kmh SE 11.5 mph18.5 kmh 30.19 in1022.4 mb - 0.00 in0.0 mm 0.00 in0.0 mm
01:45 AM 64.0°F17.8°C 57.7°F14.3°C 80% 6.9 mph SE11.1 kmh SE 11.5 mph18.5 kmh 30.19 in1022.4 mb - 0.00 in0.0 mm 0.00 in0.0 mm
01:50 AM 63.8°F17.7°C 57.5°F14.2°C 80% 5.8 mph SE9.3 kmh SE 11.5 mph18.5 kmh 30.19 in1022.4 mb - 0.00 in0.0 mm 0.00 in0.0 mm
01:55 AM 63.7°F17.6°C 57.4°F14.1°C 80% 9.2 mph SE14.8 kmh SE 11.5 mph18.5 kmh 30.19 in1022.4 mb - 0.00 in0.0 mm 0.00 in0.0 mm
02:00 AM 63.8°F17.7°C 57.5°F14.2°C 80% 5.8 mph SE9.3 kmh SE 12.7 mph20.4 kmh 30.19 in1022.4 mb - 0.00 in0.0 mm 0.00 in0.0 mm
02:10 AM 63.7°F17.6°C 57.4°F14.1°C 80% 6.9 mph SE11.1 kmh SE 10.4 mph16.7 kmh 30.19 in1022.4 mb - 0.00 in0.0 mm 0.00 in0.0 mm
02:15 AM 63.6°F17.6°C 57.3°F14.1°C 80% 5.8 mph SE9.3 kmh SE 8.1 mph13.0 kmh 30.19 in1022.4 mb - 0.00 in0.0 mm 0.00 in0.0 mm
02:20 AM 63.5°F17.5°C 57.2°F14.0°C 80% 6.9 mph SE11.1 kmh SE 11.5 mph18.5 kmh 30.19 in1022.4 mb - 0.00 in0.0 mm 0.00 in0.0 mm
02:25 AM 63.5°F17.5°C 57.6°F14.2°C 81% 6.9 mph SE11.1 kmh SE 10.4 mph16.7 kmh 30.19 in1022.4 mb - 0.00 in0.0 mm 0.00 in0.0 mm
02:30 AM 63.5°F17.5°C 57.6°F14.2°C 81% 6.9 mph SE11.1 kmh SE 11.5 mph18.5 kmh 30.19 in1022.4 mb - 0.00 in0.0 mm 0.00 in0.0 mm
02:35 AM 63.4°F17.4°C 57.5°F14.2°C 81% 6.9 mph SE11.1 kmh SE 10.4 mph16.7 kmh 30.19 in1022.4 mb - 0.00 in0.0 mm 0.00 in0.0 mm
02:40 AM 63.3°F17.4°C 57.4°F14.1°C 81% 6.9 mph SE11.1 kmh SE 9.2 mph14.8 kmh 30.18 in1022.0 mb - 0.00 in0.0 mm 0.00 in0.0 mm
02:45 AM 63.2°F17.3°C 57.3°F14.1°C 81% 5.8 mph SE9.3 kmh SE 6.9 mph11.1 kmh 30.18 in1022.0 mb - 0.00 in0.0 mm 0.00 in0.0 mm
02:50 AM 63.2°F17.3°C 57.3°F14.1°C 81% 6.9 mph SE11.1 kmh SE 9.2 mph14.8 kmh 30.18 in1022.0 mb - 0.00 in0.0 mm 0.00 in0.0 mm
02:55 AM 63.2°F17.3°C 57.6°F14.2°C 82% 4.6 mph SE7.4 kmh SE 8.1 mph13.0 kmh 30.18 in1022.0 mb - 0.00 in0.0 mm 0.00 in0.0 mm
03:00 AM 63.1°F17.3°C 57.5°F14.2°C 82% 6.9 mph SE11.1 kmh SE 10.4 mph16.7 kmh 30.18 in1022.0 mb - 0.00 in0.0 mm 0.00 in0.0 mm
03:10 AM 63.1°F17.3°C 57.5°F14.2°C 82% 4.6 mph SE7.4 kmh SE 8.1 mph13.0 kmh 30.18 in1022.0 mb - 0.00 in0.0 mm 0.00 in0.0 mm
03:15 AM 63.0°F17.2°C 57.4°F14.1°C 82% 4.6 mph SE7.4 kmh SE 8.1 mph13.0 kmh 30.18 in1022.0 mb - 0.00 in0.0 mm 0.00 in0.0 mm
03:20 AM 62.8°F17.1°C 57.6°F14.2°C 83% 2.3 mph ESE3.7 kmh ESE 3.5 mph5.6 kmh 30.18 in1022.0 mb - 0.00 in0.0 mm 0.00 in0.0 mm
03:25 AM 62.6°F17.0°C 57.4°F14.1°C 83% 3.5 mph SE5.6 kmh SE 4.6 mph7.4 kmh 30.18 in1022.0 mb - 0.00 in0.0 mm 0.00 in0.0 mm
03:30 AM 62.6°F17.0°C 57.4°F14.1°C 83% 3.5 mph SE5.6 kmh SE 6.9 mph11.1 kmh 30.17 in1021.7 mb - 0.00 in0.0 mm 0.00 in0.0 mm
03:35 AM 62.6°F17.0°C 57.4°F14.1°C 83% 3.5 mph SE5.6 kmh SE 6.9 mph11.1 kmh 30.18 in1022.0 mb - 0.00 in0.0 mm 0.00 in0.0 mm
03:40 AM 62.5°F16.9°C 57.3°F14.1°C 83% 3.5 mph ESE5.6 kmh ESE 3.5 mph5.6 kmh 30.17 in1021.7 mb - 0.00 in0.0 mm 0.00 in0.0 mm
03:45 AM 62.5°F16.9°C 57.3°F14.1°C 83% 3.5 mph ESE5.6 kmh ESE 6.9 mph11.1 kmh 30.18 in1022.0 mb - 0.00 in0.0 mm 0.00 in0.0 mm
03:50 AM 62.5°F16.9°C 57.3°F14.1°C 83% 2.3 mph SE3.7 kmh SE 3.5 mph5.6 kmh 30.17 in1021.7 mb - 0.00 in0.0 mm 0.00 in0.0 mm
03:55 AM 62.4°F16.9°C 57.5°F14.2°C 84% 2.3 mph E3.7 kmh E 3.5 mph5.6 kmh 30.17 in1021.7 mb - 0.00 in0.0 mm 0.00 in0.0 mm
04:00 AM 62.4°F16.9°C 57.5°F14.2°C 84% 2.3 mph E3.7 kmh E 3.5 mph5.6 kmh 30.17 in1021.7 mb - 0.00 in0.0 mm 0.00 in0.0 mm
04:10 AM 62.3°F16.8°C 57.4°F14.1°C 84% 3.5 mph ESE5.6 kmh ESE 5.8 mph9.3 kmh 30.18 in1022.0 mb - 0.00 in0.0 mm 0.00 in0.0 mm
04:15 AM 62.3°F16.8°C 57.4°F14.1°C 84% 2.3 mph ESE3.7 kmh ESE 9.2 mph14.8 kmh 30.18 in1022.0 mb - 0.00 in0.0 mm 0.00 in0.0 mm
04:20 AM 62.4°F16.9°C 57.5°F14.2°C 84% 2.3 mph E3.7 kmh E 6.9 mph11.1 kmh 30.18 in1022.0 mb - 0.00 in0.0 mm 0.00 in0.0 mm
04:25 AM 62.4°F16.9°C 57.8°F14.3°C 85% 3.5 mph ESE5.6 kmh ESE 6.9 mph11.1 kmh 30.18 in1022.0 mb - 0.00 in0.0 mm 0.00 in0.0 mm
04:30 AM 62.5°F16.9°C 57.9°F14.4°C 85% 2.3 mph ESE3.7 kmh ESE 3.5 mph5.6 kmh 30.18 in1022.0 mb - 0.00 in0.0 mm 0.00 in0.0 mm
04:35 AM 62.5°F16.9°C 57.9°F14.4°C 85% 3.5 mph E5.6 kmh E 5.8 mph9.3 kmh 30.18 in1022.0 mb - 0.00 in0.0 mm 0.00 in0.0 mm
04:40 AM 62.6°F17.0°C 58.0°F14.4°C 85% 3.5 mph ESE5.6 kmh ESE 9.2 mph14.8 kmh 30.18 in1022.0 mb - 0.00 in0.0 mm 0.00 in0.0 mm
04:45 AM 62.6°F17.0°C 57.7°F14.3°C 84% 4.6 mph E7.4 kmh E 6.9 mph11.1 kmh 30.17 in1021.7 mb - 0.00 in0.0 mm 0.00 in0.0 mm
04:50 AM 62.7°F17.1°C 57.8°F14.3°C 84% 3.5 mph ESE5.6 kmh ESE 8.1 mph13.0 kmh 30.17 in1021.7 mb - 0.00 in0.0 mm 0.00 in0.0 mm
04:55 AM 62.8°F17.1°C 57.9°F14.4°C 84% 4.6 mph E7.4 kmh E 8.1 mph13.0 kmh 30.17 in1021.7 mb - 0.00 in0.0 mm 0.00 in0.0 mm
05:00 AM 62.8°F17.1°C 57.9°F14.4°C 84% 3.5 mph E5.6 kmh E 9.2 mph14.8 kmh 30.17 in1021.7 mb - 0.00 in0.0 mm 0.00 in0.0 mm
05:10 AM 62.8°F17.1°C 57.9°F14.4°C 84% 2.3 mph ESE3.7 kmh ESE 3.5 mph5.6 kmh 30.17 in1021.7 mb - 0.00 in0.0 mm 0.00 in0.0 mm
05:15 AM 62.8°F17.1°C 57.9°F14.4°C 84% 4.6 mph E7.4 kmh E 8.1 mph13.0 kmh 30.17 in1021.7 mb - 0.00 in0.0 mm 0.00 in0.0 mm
05:20 AM 62.8°F17.1°C 57.9°F14.4°C 84% 3.5 mph E5.6 kmh E 5.8 mph9.3 kmh 30.17 in1021.7 mb - 0.00 in0.0 mm 0.00 in0.0 mm
05:25 AM 62.8°F17.1°C 57.9°F14.4°C 84% 2.3 mph SE3.7 kmh SE 3.5 mph5.6 kmh 30.17 in1021.7 mb - 0.00 in0.0 mm 0.00 in0.0 mm
05:30 AM 62.8°F17.1°C 57.9°F14.4°C 84% 2.3 mph SE3.7 kmh SE 3.5 mph5.6 kmh 30.16 in1021.3 mb - 0.00 in0.0 mm 0.00 in0.0 mm
05:35 AM 62.9°F17.2°C 58.0°F14.4°C 84% 2.3 mph SE3.7 kmh SE 3.5 mph5.6 kmh 30.17 in1021.7 mb - 0.00 in0.0 mm 0.00 in0.0 mm
05:40 AM 63.2°F17.3°C 58.3°F14.6°C 84% 3.5 mph ESE5.6 kmh ESE 5.8 mph9.3 kmh 30.17 in1021.7 mb - 0.00 in0.0 mm 0.00 in0.0 mm
05:45 AM 63.5°F17.5°C 58.2°F14.6°C 83% 4.6 mph SE7.4 kmh SE 9.2 mph14.8 kmh 30.17 in1021.7 mb - 0.00 in0.0 mm 0.00 in0.0 mm
05:50 AM 63.9°F17.7°C 58.7°F14.8°C 83% 5.8 mph SE9.3 kmh SE 8.1 mph13.0 kmh 30.17 in1021.7 mb - 0.00 in0.0 mm 0.00 in0.0 mm
05:55 AM 64.4°F18.0°C 58.8°F14.9°C 82% 3.5 mph SE5.6 kmh SE 6.9 mph11.1 kmh 30.17 in1021.7 mb - 0.00 in0.0 mm 0.00 in0.0 mm
06:00 AM 64.8°F18.2°C 58.8°F14.9°C 81% 5.8 mph SE9.3 kmh SE 9.2 mph14.8 kmh 30.17 in1021.7 mb - 0.00 in0.0 mm 0.00 in0.0 mm
06:10 AM 65.7°F18.7°C 59.4°F15.2°C 80% 4.6 mph SE7.4 kmh SE 11.5 mph18.5 kmh 30.17 in1021.7 mb - 0.00 in0.0 mm 0.00 in0.0 mm
06:15 AM 66.0°F18.9°C 59.7°F15.4°C 80% 4.6 mph SE7.4 kmh SE 11.5 mph18.5 kmh 30.17 in1021.7 mb - 0.00 in0.0 mm 0.00 in0.0 mm
06:20 AM 66.2°F19.0°C 59.8°F15.4°C 80% 5.8 mph SE9.3 kmh SE 10.4 mph16.7 kmh 30.16 in1021.3 mb - 0.00 in0.0 mm 0.00 in0.0 mm
06:25 AM 66.4°F19.1°C 60.0°F15.6°C 80% 6.9 mph SE11.1 kmh SE 10.4 mph16.7 kmh 30.16 in1021.3 mb - 0.00 in0.0 mm 0.00 in0.0 mm
06:30 AM 66.6°F19.2°C 60.2°F15.7°C 80% 4.6 mph ESE7.4 kmh ESE 9.2 mph14.8 kmh 30.16 in1021.3 mb - 0.00 in0.0 mm 0.00 in0.0 mm
06:35 AM 66.7°F19.3°C 60.3°F15.7°C 80% 8.1 mph SE13.0 kmh SE 10.4 mph16.7 kmh 30.16 in1021.3 mb - 0.00 in0.0 mm 0.00 in0.0 mm
06:40 AM 66.9°F19.4°C 60.5°F15.8°C 80% 4.6 mph SE7.4 kmh SE 8.1 mph13.0 kmh 30.16 in1021.3 mb - 0.00 in0.0 mm 0.00 in0.0 mm
06:45 AM 67.0°F19.4°C 60.6°F15.9°C 80% 8.1 mph SE13.0 kmh SE 11.5 mph18.5 kmh 30.16 in1021.3 mb - 0.00 in0.0 mm 0.00 in0.0 mm
06:50 AM 67.1°F19.5°C 60.7°F15.9°C 80% 5.8 mph ESE9.3 kmh ESE 10.4 mph16.7 kmh 30.16 in1021.3 mb - 0.00 in0.0 mm 0.00 in0.0 mm
06:55 AM 67.2°F19.6°C 60.8°F16.0°C 80% 6.9 mph ESE11.1 kmh ESE 11.5 mph18.5 kmh 30.16 in1021.3 mb - 0.00 in0.0 mm 0.00 in0.0 mm
07:00 AM 67.4°F19.7°C 61.0°F16.1°C 80% 5.8 mph SE9.3 kmh SE 12.7 mph20.4 kmh 30.16 in1021.3 mb - 0.00 in0.0 mm 0.00 in0.0 mm
07:10 AM 67.3°F19.6°C 60.6°F15.9°C 79% 6.9 mph SE11.1 kmh SE 8.1 mph13.0 kmh 30.16 in1021.3 mb - 0.00 in0.0 mm 0.00 in0.0 mm
07:15 AM 67.5°F19.7°C 60.8°F16.0°C 79% 4.6 mph SE7.4 kmh SE 9.2 mph14.8 kmh 30.16 in1021.3 mb - 0.00 in0.0 mm 0.00 in0.0 mm
07:20 AM 68.0°F20.0°C 61.2°F16.2°C 79% 4.6 mph SE7.4 kmh SE 6.9 mph11.1 kmh 30.16 in1021.3 mb - 0.00 in0.0 mm 0.00 in0.0 mm
07:25 AM 68.1°F20.1°C 61.0°F16.1°C 78% 8.1 mph SE13.0 kmh SE 10.4 mph16.7 kmh 30.16 in1021.3 mb - 0.00 in0.0 mm 0.00 in0.0 mm
07:30 AM 68.2°F20.1°C 61.1°F16.2°C 78% 6.9 mph SE11.1 kmh SE 13.8 mph22.2 kmh 30.16 in1021.3 mb - 0.00 in0.0 mm 0.00 in0.0 mm
07:35 AM 68.3°F20.2°C 61.1°F16.2°C 78% 6.9 mph SE11.1 kmh SE 10.4 mph16.7 kmh 30.15 in1021.0 mb - 0.00 in0.0 mm 0.00 in0.0 mm
07:40 AM 68.6°F20.3°C 61.4°F16.3°C 78% 8.1 mph ESE13.0 kmh ESE 15.0 mph24.1 kmh 30.15 in1021.0 mb - 0.00 in0.0 mm 0.00 in0.0 mm
07:45 AM 68.5°F20.3°C 61.4°F16.3°C 78% 3.5 mph SE5.6 kmh SE 5.8 mph9.3 kmh 30.16 in1021.3 mb - 0.00 in0.0 mm 0.00 in0.0 mm
07:50 AM 69.0°F20.6°C 61.4°F16.3°C 77% 5.8 mph ESE9.3 kmh ESE 8.1 mph13.0 kmh 30.16 in1021.3 mb - 0.00 in0.0 mm 0.00 in0.0 mm
07:55 AM 68.9°F20.5°C 61.0°F16.1°C 76% 6.9 mph E11.1 kmh E 9.2 mph14.8 kmh 30.15 in1021.0 mb - 0.00 in0.0 mm 0.00 in0.0 mm
08:00 AM 69.7°F20.9°C 61.4°F16.3°C 75% 4.6 mph SE7.4 kmh SE 8.1 mph13.0 kmh 30.16 in1021.3 mb - 0.00 in0.0 mm 0.00 in0.0 mm
08:10 AM 69.8°F21.0°C 61.1°F16.2°C 74% 6.9 mph SE11.1 kmh SE 10.4 mph16.7 kmh 30.16 in1021.3 mb - 0.00 in0.0 mm 0.00 in0.0 mm
08:15 AM 69.6°F20.9°C 61.0°F16.1°C 74% 5.8 mph SE9.3 kmh SE 8.1 mph13.0 kmh 30.16 in1021.3 mb - 0.00 in0.0 mm 0.00 in0.0 mm
08:20 AM 69.8°F21.0°C 61.2°F16.2°C 74% 5.8 mph SE9.3 kmh SE 10.4 mph16.7 kmh 30.15 in1021.0 mb - 0.00 in0.0 mm 0.00 in0.0 mm
08:25 AM 70.1°F21.2°C 61.4°F16.3°C 74% 5.8 mph SSE9.3 kmh SSE 8.1 mph13.0 kmh 30.16 in1021.3 mb - 0.00 in0.0 mm 0.00 in0.0 mm
08:30 AM 70.8°F21.6°C 62.1°F16.7°C 74% 3.5 mph ESE5.6 kmh ESE 6.9 mph11.1 kmh 30.16 in1021.3 mb - 0.00 in0.0 mm 0.00 in0.0 mm
08:35 AM 70.6°F21.4°C 61.5°F16.4°C 73% 4.6 mph SE7.4 kmh SE 8.1 mph13.0 kmh 30.16 in1021.3 mb - 0.00 in0.0 mm 0.00 in0.0 mm
08:40 AM 71.0°F21.7°C 61.9°F16.6°C 73% 3.5 mph SE5.6 kmh SE 8.1 mph13.0 kmh 30.15 in1021.0 mb - 0.00 in0.0 mm 0.00 in0.0 mm
08:45 AM 71.5°F21.9°C 61.6°F16.4°C 71% 4.6 mph SE7.4 kmh SE 8.1 mph13.0 kmh 30.16 in1021.3 mb - 0.00 in0.0 mm 0.00 in0.0 mm
08:50 AM 71.0°F21.7°C 61.1°F16.2°C 71% 3.5 mph SE5.6 kmh SE 5.8 mph9.3 kmh 30.16 in1021.3 mb - 0.00 in0.0 mm 0.00 in0.0 mm
08:55 AM 71.1°F21.7°C 61.2°F16.2°C 71% 5.8 mph SE9.3 kmh SE 10.4 mph16.7 kmh 30.15 in1021.0 mb - 0.00 in0.0 mm 0.00 in0.0 mm
09:00 AM 71.1°F21.7°C 61.6°F16.4°C 72% 4.6 mph ESE7.4 kmh ESE 8.1 mph13.0 kmh 30.16 in1021.3 mb - 0.00 in0.0 mm 0.00 in0.0 mm
09:10 AM 71.5°F21.9°C 61.6°F16.4°C 71% 3.5 mph SE5.6 kmh SE 3.5 mph5.6 kmh 30.16 in1021.3 mb - 0.00 in0.0 mm 0.00 in0.0 mm
09:15 AM 71.8°F22.1°C 62.7°F17.1°C 73% 3.5 mph SE5.6 kmh SE 6.9 mph11.1 kmh 30.16 in1021.3 mb - 0.00 in0.0 mm 0.00 in0.0 mm
09:20 AM 71.8°F22.1°C 62.7°F17.1°C 73% 2.3 mph SE3.7 kmh SE 3.5 mph5.6 kmh 30.16 in1021.3 mb - 0.00 in0.0 mm 0.00 in0.0 mm
09:25 AM 71.8°F22.1°C 61.9°F16.6°C 71% 4.6 mph SE7.4 kmh SE 10.4 mph16.7 kmh 30.16 in1021.3 mb - 0.00 in0.0 mm 0.00 in0.0 mm
09:30 AM 71.4°F21.9°C 61.5°F16.4°C 71% 4.6 mph ESE7.4 kmh ESE 6.9 mph11.1 kmh 30.16 in1021.3 mb - 0.00 in0.0 mm 0.00 in0.0 mm
09:35 AM 71.5°F21.9°C 62.0°F16.7°C 72% 5.8 mph SE9.3 kmh SE 8.1 mph13.0 kmh 30.16 in1021.3 mb - 0.00 in0.0 mm 0.00 in0.0 mm
09:40 AM 71.4°F21.9°C 61.9°F16.6°C 72% 4.6 mph SE7.4 kmh SE 8.1 mph13.0 kmh 30.16 in1021.3 mb - 0.00 in0.0 mm 0.00 in0.0 mm
09:45 AM 71.2°F21.8°C 61.8°F16.6°C 72% 5.8 mph SE9.3 kmh SE 9.2 mph14.8 kmh 30.16 in1021.3 mb - 0.00 in0.0 mm 0.00 in0.0 mm
09:50 AM 71.6°F22.0°C 62.1°F16.7°C 72% 4.6 mph SE7.4 kmh SE 9.2 mph14.8 kmh 30.16 in1021.3 mb - 0.00 in0.0 mm 0.00 in0.0 mm
09:55 AM 70.9°F21.6°C 61.8°F16.6°C 73% 5.8 mph SE9.3 kmh SE 9.2 mph14.8 kmh 30.16 in1021.3 mb - 0.00 in0.0 mm 0.00 in0.0 mm
10:00 AM 71.0°F21.7°C 61.9°F16.6°C 73% 6.9 mph SE11.1 kmh SE 9.2 mph14.8 kmh 30.16 in1021.3 mb - 0.00 in0.0 mm 0.00 in0.0 mm
10:10 AM 71.6°F22.0°C 62.1°F16.7°C 72% 5.8 mph ESE9.3 kmh ESE 6.9 mph11.1 kmh 30.16 in1021.3 mb - 0.00 in0.0 mm 0.00 in0.0 mm
10:15 AM 72.4°F22.4°C 62.5°F16.9°C 71% 5.8 mph SE9.3 kmh SE 6.9 mph11.1 kmh 30.15 in1021.0 mb - 0.00 in0.0 mm 0.00 in0.0 mm
10:20 AM 72.7°F22.6°C 62.8°F17.1°C 71% 5.8 mph SE9.3 kmh SE 8.1 mph13.0 kmh 30.15 in1021.0 mb - 0.00 in0.0 mm 0.00 in0.0 mm
10:25 AM 73.2°F22.9°C 62.8°F17.1°C 70% 6.9 mph SE11.1 kmh SE 10.4 mph16.7 kmh 30.15 in1021.0 mb - 0.00 in0.0 mm 0.00 in0.0 mm
10:30 AM 73.0°F22.8°C 63.4°F17.4°C 72% 4.6 mph E7.4 kmh E 5.8 mph9.3 kmh 30.15 in1021.0 mb - 0.00 in0.0 mm 0.00 in0.0 mm
10:35 AM 73.7°F23.2°C 63.3°F17.4°C 70% 5.8 mph SE9.3 kmh SE 10.4 mph16.7 kmh 30.15 in1021.0 mb - 0.00 in0.0 mm 0.00 in0.0 mm
10:40 AM 74.0°F23.3°C 64.0°F17.8°C 71% 3.5 mph E5.6 kmh E 10.4 mph16.7 kmh 30.15 in1021.0 mb - 0.00 in0.0 mm 0.00 in0.0 mm
10:45 AM 74.8°F23.8°C 63.5°F17.5°C 68% 3.5 mph E5.6 kmh E 6.9 mph11.1 kmh 30.15 in1021.0 mb - 0.00 in0.0 mm 0.00 in0.0 mm
10:50 AM 75.3°F24.1°C 62.7°F17.1°C 65% 4.6 mph ESE7.4 kmh ESE 10.4 mph16.7 kmh 30.15 in1021.0 mb - 0.00 in0.0 mm 0.00 in0.0 mm
10:55 AM 75.1°F23.9°C 62.5°F16.9°C 65% 5.8 mph E9.3 kmh E 10.4 mph16.7 kmh 30.15 in1021.0 mb - 0.00 in0.0 mm 0.00 in0.0 mm
11:00 AM 75.3°F24.1°C 62.7°F17.1°C 65% 4.6 mph SE7.4 kmh SE 6.9 mph11.1 kmh 30.14 in1020.7 mb - 0.00 in0.0 mm 0.00 in0.0 mm
11:10 AM 75.9°F24.4°C 62.4°F16.9°C 63% 4.6 mph E7.4 kmh E 9.2 mph14.8 kmh 30.14 in1020.7 mb - 0.00 in0.0 mm 0.00 in0.0 mm
11:15 AM 76.1°F24.5°C 61.7°F16.5°C 61% 5.8 mph ESE9.3 kmh ESE 8.1 mph13.0 kmh 30.14 in1020.7 mb - 0.00 in0.0 mm 0.00 in0.0 mm
11:20 AM 76.5°F24.7°C 62.0°F16.7°C 61% 3.5 mph SE5.6 kmh SE 10.4 mph16.7 kmh 30.14 in1020.7 mb - 0.00 in0.0 mm 0.00 in0.0 mm
11:25 AM 76.8°F24.9°C 62.4°F16.9°C 61% 4.6 mph E7.4 kmh E 9.2 mph14.8 kmh 30.14 in1020.7 mb - 0.00 in0.0 mm 0.00 in0.0 mm
11:30 AM 77.3°F25.2°C 63.8°F17.7°C 63% 3.5 mph E5.6 kmh E 5.8 mph9.3 kmh 30.13 in1020.3 mb - 0.00 in0.0 mm 0.00 in0.0 mm
11:35 AM 78.0°F25.6°C 63.4°F17.4°C 61% 5.8 mph E9.3 kmh E 8.1 mph13.0 kmh 30.14 in1020.7 mb - 0.00 in0.0 mm 0.00 in0.0 mm
11:40 AM 78.2°F25.7°C 63.6°F17.6°C 61% 3.5 mph E5.6 kmh E 6.9 mph11.1 kmh 30.14 in1020.7 mb - 0.00 in0.0 mm 0.00 in0.0 mm
11:45 AM 78.6°F25.9°C 64.0°F17.8°C 61% 5.8 mph ESE9.3 kmh ESE 8.1 mph13.0 kmh 30.13 in1020.3 mb - 0.00 in0.0 mm 0.00 in0.0 mm
11:50 AM 78.3°F25.7°C 63.2°F17.3°C 60% 6.9 mph SE11.1 kmh SE 9.2 mph14.8 kmh 30.13 in1020.3 mb - 0.00 in0.0 mm 0.00 in0.0 mm
11:55 AM 78.1°F25.6°C 63.6°F17.6°C 61% 4.6 mph E7.4 kmh E 5.8 mph9.3 kmh 30.13 in1020.3 mb - 0.00 in0.0 mm 0.00 in0.0 mm
12:00 PM 78.9°F26.1°C 63.8°F17.7°C 60% 3.5 mph ESE5.6 kmh ESE 8.1 mph13.0 kmh 30.13 in1020.3 mb - 0.00 in0.0 mm 0.00 in0.0 mm
12:10 PM 77.9°F25.5°C 64.3°F17.9°C 63% 6.9 mph SE11.1 kmh SE 10.4 mph16.7 kmh 30.13 in1020.3 mb - 0.00 in0.0 mm 0.00 in0.0 mm
12:15 PM 77.6°F25.3°C 64.0°F17.8°C 63% 5.8 mph SE9.3 kmh SE 11.5 mph18.5 kmh 30.14 in1020.7 mb - 0.00 in0.0 mm 0.00 in0.0 mm
12:20 PM 77.3°F25.2°C 63.8°F17.7°C 63% 8.1 mph SE13.0 kmh SE 11.5 mph18.5 kmh 30.13 in1020.3 mb - 0.00 in0.0 mm 0.00 in0.0 mm
12:25 PM 77.1°F25.1°C 63.1°F17.3°C 62% 8.1 mph SE13.0 kmh SE 11.5 mph18.5 kmh 30.13 in1020.3 mb - 0.00 in0.0 mm 0.00 in0.0 mm
12:30 PM 77.1°F25.1°C 63.1°F17.3°C 62% 8.1 mph SE13.0 kmh SE 10.4 mph16.7 kmh 30.13 in1020.3 mb - 0.00 in0.0 mm 0.00 in0.0 mm
12:35 PM 76.5°F24.7°C 62.5°F16.9°C 62% 6.9 mph SE11.1 kmh SE 11.5 mph18.5 kmh 30.13 in1020.3 mb - 0.00 in0.0 mm 0.00 in0.0 mm
12:40 PM 77.3°F25.2°C 62.8°F17.1°C 61% 6.9 mph SE11.1 kmh SE 11.5 mph18.5 kmh 30.13 in1020.3 mb - 0.00 in0.0 mm 0.00 in0.0 mm
12:45 PM 77.0°F25.0°C 62.5°F16.9°C 61% 6.9 mph SE11.1 kmh SE 9.2 mph14.8 kmh 30.13 in1020.3 mb - 0.00 in0.0 mm 0.00 in0.0 mm
12:50 PM 76.2°F24.6°C 62.3°F16.8°C 62% 6.9 mph SE11.1 kmh SE 10.4 mph16.7 kmh 30.13 in1020.3 mb - 0.00 in0.0 mm 0.00 in0.0 mm
12:55 PM 76.3°F24.6°C 62.3°F16.8°C 62% 6.9 mph SE11.1 kmh SE 11.5 mph18.5 kmh 30.13 in1020.3 mb - 0.00 in0.0 mm 0.00 in0.0 mm
01:00 PM 76.4°F24.7°C 62.4°F16.9°C 62% 6.9 mph SE11.1 kmh SE 10.4 mph16.7 kmh 30.13 in1020.3 mb - 0.00 in0.0 mm 0.00 in0.0 mm
01:10 PM 76.8°F24.9°C 63.2°F17.3°C 63% 5.8 mph SE9.3 kmh SE 10.4 mph16.7 kmh 30.13 in1020.3 mb - 0.00 in0.0 mm 0.00 in0.0 mm
01:15 PM 77.3°F25.2°C 62.3°F16.8°C 60% 6.9 mph SE11.1 kmh SE 11.5 mph18.5 kmh 30.13 in1020.3 mb - 0.00 in0.0 mm 0.00 in0.0 mm
01:20 PM 77.2°F25.1°C 62.2°F16.8°C 60% 5.8 mph ESE9.3 kmh ESE 8.1 mph13.0 kmh 30.13 in1020.3 mb - 0.00 in0.0 mm 0.00 in0.0 mm
01:25 PM 77.0°F25.0°C 63.5°F17.5°C 63% 6.9 mph SE11.1 kmh SE 11.5 mph18.5 kmh 30.13 in1020.3 mb - 0.00 in0.0 mm 0.00 in0.0 mm
01:30 PM 76.3°F24.6°C 62.7°F17.1°C 63% 5.8 mph SE9.3 kmh SE 11.5 mph18.5 kmh 30.13 in1020.3 mb - 0.00 in0.0 mm 0.00 in0.0 mm
01:35 PM 76.8°F24.9°C 63.3°F17.4°C 63% 6.9 mph SE11.1 kmh SE 11.5 mph18.5 kmh 30.12 in1020.0 mb - 0.00 in0.0 mm 0.00 in0.0 mm
01:40 PM 77.4°F25.2°C 62.9°F17.2°C 61% 8.1 mph SE13.0 kmh SE 12.7 mph20.4 kmh 30.12 in1020.0 mb - 0.00 in0.0 mm 0.00 in0.0 mm
01:45 PM 76.7°F24.8°C 62.7°F17.1°C 62% 5.8 mph SE9.3 kmh SE 9.2 mph14.8 kmh 30.12 in1020.0 mb - 0.00 in0.0 mm 0.00 in0.0 mm
01:50 PM 77.0°F25.0°C 63.0°F17.2°C 62% 5.8 mph SE9.3 kmh SE 8.1 mph13.0 kmh 30.12 in1020.0 mb - 0.00 in0.0 mm 0.00 in0.0 mm
01:55 PM 76.7°F24.8°C 63.6°F17.6°C 64% 5.8 mph SE9.3 kmh SE 8.1 mph13.0 kmh 30.12 in1020.0 mb - 0.00 in0.0 mm 0.00 in0.0 mm
02:00 PM 76.4°F24.7°C 63.3°F17.4°C 64% 5.8 mph SE9.3 kmh SE 9.2 mph14.8 kmh 30.12 in1020.0 mb - 0.00 in0.0 mm 0.00 in0.0 mm
02:10 PM 76.7°F24.8°C 63.1°F17.3°C 63% 6.9 mph SE11.1 kmh SE 10.4 mph16.7 kmh 30.12 in1020.0 mb - 0.00 in0.0 mm 0.00 in0.0 mm
02:15 PM 76.6°F24.8°C 63.5°F17.5°C 64% 6.9 mph SE11.1 kmh SE 10.4 mph16.7 kmh 30.11 in1019.6 mb - 0.00 in0.0 mm 0.00 in0.0 mm
02:20 PM 76.5°F24.7°C 63.4°F17.4°C 64% 6.9 mph SE11.1 kmh SE 10.4 mph16.7 kmh 30.11 in1019.6 mb - 0.00 in0.0 mm 0.00 in0.0 mm
02:25 PM 77.4°F25.2°C 64.7°F18.2°C 65% 5.8 mph SE9.3 kmh SE 11.5 mph18.5 kmh 30.11 in1019.6 mb - 0.00 in0.0 mm 0.00 in0.0 mm
02:30 PM 78.1°F25.6°C 65.4°F18.6°C 65% 5.8 mph SE9.3 kmh SE 11.5 mph18.5 kmh 30.11 in1019.6 mb - 0.00 in0.0 mm 0.00 in0.0 mm
02:35 PM 78.7°F25.9°C 65.0°F18.3°C 63% 4.6 mph SE7.4 kmh SE 9.2 mph14.8 kmh 30.11 in1019.6 mb - 0.00 in0.0 mm 0.00 in0.0 mm
02:40 PM 78.3°F25.7°C 65.1°F18.4°C 64% 4.6 mph SE7.4 kmh SE 11.5 mph18.5 kmh 30.11 in1019.6 mb - 0.00 in0.0 mm 0.00 in0.0 mm
02:45 PM 78.3°F25.7°C 64.2°F17.9°C 62% 8.1 mph SE13.0 kmh SE 11.5 mph18.5 kmh 30.11 in1019.6 mb - 0.00 in0.0 mm 0.00 in0.0 mm
02:50 PM 78.2°F25.7°C 64.6°F18.1°C 63% 5.8 mph SE9.3 kmh SE 9.2 mph14.8 kmh 30.11 in1019.6 mb - 0.00 in0.0 mm 0.00 in0.0 mm
02:55 PM 78.9°F26.1°C 65.3°F18.5°C 63% 5.8 mph SE9.3 kmh SE 8.1 mph13.0 kmh 30.11 in1019.6 mb - 0.00 in0.0 mm 0.00 in0.0 mm
03:00 PM 79.2°F26.2°C 65.1°F18.4°C 62% 6.9 mph SE11.1 kmh SE 10.4 mph16.7 kmh 30.11 in1019.6 mb - 0.00 in0.0 mm 0.00 in0.0 mm
03:10 PM 78.5°F25.8°C 63.9°F17.7°C 61% 8.1 mph SE13.0 kmh SE 11.5 mph18.5 kmh 30.11 in1019.6 mb - 0.00 in0.0 mm 0.00 in0.0 mm
03:15 PM 78.6°F25.9°C 64.1°F17.8°C 61% 6.9 mph SE11.1 kmh SE 8.1 mph13.0 kmh 30.11 in1019.6 mb - 0.00 in0.0 mm 0.00 in0.0 mm
03:20 PM 78.9°F26.1°C 63.8°F17.7°C 60% 8.1 mph SE13.0 kmh SE 10.4 mph16.7 kmh 30.11 in1019.6 mb - 0.00 in0.0 mm 0.00 in0.0 mm
03:25 PM 79.2°F26.2°C 64.6°F18.1°C 61% 5.8 mph ESE9.3 kmh ESE 10.4 mph16.7 kmh 30.11 in1019.6 mb - 0.00 in0.0 mm 0.00 in0.0 mm
03:30 PM 79.5°F26.4°C 65.3°F18.5°C 62% 4.6 mph SE7.4 kmh SE 9.2 mph14.8 kmh 30.10 in1019.3 mb - 0.00 in0.0 mm 0.00 in0.0 mm
03:35 PM 79.7°F26.5°C 65.5°F18.6°C 62% 4.6 mph SE7.4 kmh SE 6.9 mph11.1 kmh 30.11 in1019.6 mb - 0.00 in0.0 mm 0.00 in0.0 mm
03:40 PM 79.4°F26.3°C 64.8°F18.2°C 61% 4.6 mph SE7.4 kmh SE 5.8 mph9.3 kmh 30.10 in1019.3 mb - 0.00 in0.0 mm 0.00 in0.0 mm
03:45 PM 79.5°F26.4°C 64.4°F18.0°C 60% 5.8 mph SE9.3 kmh SE 11.5 mph18.5 kmh 30.10 in1019.3 mb - 0.00 in0.0 mm 0.00 in0.0 mm
03:50 PM 79.6°F26.4°C 65.0°F18.3°C 61% 6.9 mph SE11.1 kmh SE 9.2 mph14.8 kmh 30.10 in1019.3 mb - 0.00 in0.0 mm 0.00 in0.0 mm
03:55 PM 79.9°F26.6°C 64.7°F18.2°C 60% 6.9 mph SE11.1 kmh SE 8.1 mph13.0 kmh 30.10 in1019.3 mb - 0.00 in0.0 mm 0.00 in0.0 mm
04:00 PM 80.4°F26.9°C 66.7°F19.3°C 63% 2.3 mph ESE3.7 kmh ESE 4.6 mph7.4 kmh 30.10 in1019.3 mb - 0.00 in0.0 mm 0.00 in0.0 mm
04:10 PM 81.2°F27.3°C 66.5°F19.2°C 61% 5.8 mph SE9.3 kmh SE 8.1 mph13.0 kmh 30.10 in1019.3 mb - 0.00 in0.0 mm 0.00 in0.0 mm
04:15 PM 81.3°F27.4°C 67.5°F19.7°C 63% 2.3 mph SE3.7 kmh SE 3.5 mph5.6 kmh 30.10 in1019.3 mb - 0.00 in0.0 mm 0.00 in0.0 mm
04:20 PM 81.7°F27.6°C 66.5°F19.2°C 60% 4.6 mph SE7.4 kmh SE 6.9 mph11.1 kmh 30.10 in1019.3 mb - 0.00 in0.0 mm 0.00 in0.0 mm
04:25 PM 81.2°F27.3°C 66.0°F18.9°C 60% 3.5 mph SE5.6 kmh SE 6.9 mph11.1 kmh 30.10 in1019.3 mb - 0.00 in0.0 mm 0.00 in0.0 mm
04:30 PM 81.1°F27.3°C 65.9°F18.8°C 60% 3.5 mph SE5.6 kmh SE 5.8 mph9.3 kmh 30.10 in1019.3 mb - 0.00 in0.0 mm 0.00 in0.0 mm
04:35 PM 81.2°F27.3°C 65.9°F18.8°C 60% 3.5 mph SE5.6 kmh SE 4.6 mph7.4 kmh 30.10 in1019.3 mb - 0.00 in0.0 mm 0.00 in0.0 mm
04:40 PM 81.3°F27.4°C 66.6°F19.2°C 61% 3.5 mph SE5.6 kmh SE 6.9 mph11.1 kmh 30.10 in1019.3 mb - 0.00 in0.0 mm 0.00 in0.0 mm
04:45 PM 81.4°F27.4°C 65.7°F18.7°C 59% 4.6 mph SE7.4 kmh SE 6.9 mph11.1 kmh 30.10 in1019.3 mb - 0.00 in0.0 mm 0.00 in0.0 mm
04:50 PM 81.6°F27.6°C 66.4°F19.1°C 60% 3.5 mph ESE5.6 kmh ESE 5.8 mph9.3 kmh 30.10 in1019.3 mb - 0.00 in0.0 mm 0.00 in0.0 mm
04:55 PM 81.9°F27.7°C 65.6°F18.7°C 58% 4.6 mph SE7.4 kmh SE 6.9 mph11.1 kmh 30.10 in1019.3 mb - 0.00 in0.0 mm 0.00 in0.0 mm
05:00 PM 81.9°F27.7°C 66.6°F19.2°C 60% 3.5 mph E5.6 kmh E 3.5 mph5.6 kmh 30.10 in1019.3 mb - 0.00 in0.0 mm 0.00 in0.0 mm
05:10 PM 82.0°F27.8°C 66.8°F19.3°C 60% 3.5 mph SE5.6 kmh SE 4.6 mph7.4 kmh 30.09 in1019.0 mb - 0.00 in0.0 mm 0.00 in0.0 mm
05:15 PM 82.1°F27.8°C 67.8°F19.9°C 62% 3.5 mph E5.6 kmh E 4.6 mph7.4 kmh 30.09 in1019.0 mb - 0.00 in0.0 mm 0.00 in0.0 mm
05:20 PM 82.2°F27.9°C 67.9°F19.9°C 62% 2.3 mph E3.7 kmh E 4.6 mph7.4 kmh 30.09 in1019.0 mb - 0.00 in0.0 mm 0.00 in0.0 mm
05:25 PM 82.1°F27.8°C 67.8°F19.9°C 62% 2.3 mph E3.7 kmh E 3.5 mph5.6 kmh 30.09 in1019.0 mb - 0.00 in0.0 mm 0.00 in0.0 mm
05:30 PM 82.1°F27.8°C 67.3°F19.6°C 61% 3.5 mph E5.6 kmh E 5.8 mph9.3 kmh 30.09 in1019.0 mb - 0.00 in0.0 mm 0.00 in0.0 mm
05:35 PM 81.8°F27.7°C 67.1°F19.5°C 61% 2.3 mph E3.7 kmh E 3.5 mph5.6 kmh 30.09 in1019.0 mb - 0.00 in0.0 mm 0.00 in0.0 mm
05:40 PM 81.9°F27.7°C 67.6°F19.8°C 62% 2.3 mph E3.7 kmh E 5.8 mph9.3 kmh 30.09 in1019.0 mb - 0.00 in0.0 mm 0.00 in0.0 mm
05:45 PM 82.1°F27.8°C 67.8°F19.9°C 62% 3.5 mph ESE5.6 kmh ESE 3.5 mph5.6 kmh 30.09 in1019.0 mb - 0.00 in0.0 mm 0.00 in0.0 mm
05:50 PM 82.1°F27.8°C 67.4°F19.7°C 61% 2.3 mph SE3.7 kmh SE 4.6 mph7.4 kmh 30.09 in1019.0 mb - 0.00 in0.0 mm 0.00 in0.0 mm
05:55 PM 82.1°F27.8°C 67.3°F19.6°C 61% 2.3 mph ESE3.7 kmh ESE 3.5 mph5.6 kmh 30.09 in1019.0 mb - 0.00 in0.0 mm 0.00 in0.0 mm
06:00 PM 82.1°F27.8°C 66.8°F19.3°C 60% 3.5 mph SE5.6 kmh SE 3.5 mph5.6 kmh 30.09 in1019.0 mb - 0.00 in0.0 mm 0.00 in0.0 mm
06:10 PM 82.1°F27.8°C 67.3°F19.6°C 61% 2.3 mph SE3.7 kmh SE 3.5 mph5.6 kmh 30.09 in1019.0 mb - 0.00 in0.0 mm 0.00 in0.0 mm
06:15 PM 82.2°F27.9°C 67.4°F19.7°C 61% 2.3 mph SE3.7 kmh SE 3.5 mph5.6 kmh 30.09 in1019.0 mb - 0.00 in0.0 mm 0.00 in0.0 mm
06:20 PM 82.1°F27.8°C 67.8°F19.9°C 62% 2.3 mph SE3.7 kmh SE 4.6 mph7.4 kmh 30.09 in1019.0 mb - 0.00 in0.0 mm 0.00 in0.0 mm
06:25 PM 82.2°F27.9°C 68.3°F20.2°C 63% 1.2 mph ESE1.9 kmh ESE 3.5 mph5.6 kmh 30.09 in1019.0 mb - 0.00 in0.0 mm 0.00 in0.0 mm
06:30 PM 82.0°F27.8°C 67.7°F19.8°C 62% 2.3 mph SE3.7 kmh SE 3.5 mph5.6 kmh 30.09 in1019.0 mb - 0.00 in0.0 mm 0.00 in0.0 mm
06:35 PM 81.8°F27.7°C 67.5°F19.7°C 62% 2.3 mph SE3.7 kmh SE 3.5 mph5.6 kmh 30.09 in1019.0 mb - 0.00 in0.0 mm 0.00 in0.0 mm
06:40 PM 81.4°F27.4°C 68.1°F20.1°C 64% 2.3 mph SE3.7 kmh SE 3.5 mph5.6 kmh 30.09 in1019.0 mb - 0.00 in0.0 mm 0.00 in0.0 mm
06:45 PM 81.2°F27.3°C 67.9°F19.9°C 64% 2.3 mph ESE3.7 kmh ESE 3.5 mph5.6 kmh 30.09 in1019.0 mb - 0.00 in0.0 mm 0.00 in0.0 mm
06:50 PM 81.2°F27.3°C 67.9°F19.9°C 64% 1.2 mph ESE1.9 kmh ESE 3.5 mph5.6 kmh 30.09 in1019.0 mb - 0.00 in0.0 mm 0.00 in0.0 mm
06:55 PM 80.8°F27.1°C 67.5°F19.7°C 64% 2.3 mph E3.7 kmh E 3.5 mph5.6 kmh 30.09 in1019.0 mb - 0.00 in0.0 mm 0.00 in0.0 mm
07:10 PM 79.8°F26.6°C 67.4°F19.7°C 66% 2.3 mph ESE3.7 kmh ESE 3.5 mph5.6 kmh 30.09 in1019.0 mb - 0.00 in0.0 mm 0.00 in0.0 mm
07:15 PM 79.5°F26.4°C 66.7°F19.3°C 65% 2.3 mph E3.7 kmh E 3.5 mph5.6 kmh 30.09 in1019.0 mb - 0.00 in0.0 mm 0.00 in0.0 mm
07:20 PM 79.2°F26.2°C 66.8°F19.3°C 66% 2.3 mph ESE3.7 kmh ESE 3.5 mph5.6 kmh 30.09 in1019.0 mb - 0.00 in0.0 mm 0.00 in0.0 mm
07:25 PM 78.7°F25.9°C 66.8°F19.3°C 67% 2.3 mph E3.7 kmh E 3.5 mph5.6 kmh 30.09 in1019.0 mb - 0.00 in0.0 mm 0.00 in0.0 mm
07:30 PM 78.3°F25.7°C 66.9°F19.4°C 68% 2.3 mph SE3.7 kmh SE 3.5 mph5.6 kmh 30.09 in1019.0 mb - 0.00 in0.0 mm 0.00 in0.0 mm
07:35 PM 77.9°F25.5°C 66.5°F19.2°C 68% 2.3 mph E3.7 kmh E 3.5 mph5.6 kmh 30.09 in1019.0 mb - 0.00 in0.0 mm 0.00 in0.0 mm
07:40 PM 77.5°F25.3°C 66.1°F18.9°C 68% 2.3 mph E3.7 kmh E 3.5 mph5.6 kmh 30.09 in1019.0 mb - 0.00 in0.0 mm 0.00 in0.0 mm
07:45 PM 77.2°F25.1°C 66.3°F19.1°C 69% 2.3 mph ESE3.7 kmh ESE 3.5 mph5.6 kmh 30.09 in1019.0 mb - 0.00 in0.0 mm 0.00 in0.0 mm
07:50 PM 76.9°F24.9°C 66.0°F18.9°C 69% 2.3 mph ESE3.7 kmh ESE 3.5 mph5.6 kmh 30.08 in1018.6 mb - 0.00 in0.0 mm 0.00 in0.0 mm
07:55 PM 76.7°F24.8°C 65.7°F18.7°C 69% 2.3 mph E3.7 kmh E 3.5 mph5.6 kmh 30.08 in1018.6 mb - 0.00 in0.0 mm 0.00 in0.0 mm
08:00 PM 76.2°F24.6°C 64.9°F18.3°C 68% 1.2 mph E1.9 kmh E 3.5 mph5.6 kmh 30.08 in1018.6 mb - 0.00 in0.0 mm 0.00 in0.0 mm
08:10 PM 75.7°F24.3°C 64.4°F18.0°C 68% 2.3 mph E3.7 kmh E 5.8 mph9.3 kmh 30.09 in1019.0 mb - 0.00 in0.0 mm 0.00 in0.0 mm
08:15 PM 75.4°F24.1°C 64.1°F17.8°C 68% 2.3 mph ESE3.7 kmh ESE 3.5 mph5.6 kmh 30.09 in1019.0 mb - 0.00 in0.0 mm 0.00 in0.0 mm
08:20 PM 75.2°F24.0°C 63.9°F17.7°C 68% 2.3 mph ESE3.7 kmh ESE 3.5 mph5.6 kmh 30.09 in1019.0 mb - 0.00 in0.0 mm 0.00 in0.0 mm
08:25 PM 75.0°F23.9°C 64.1°F17.8°C 69% 1.2 mph E1.9 kmh E 3.5 mph5.6 kmh 30.09 in1019.0 mb - 0.00 in0.0 mm 0.00 in0.0 mm
08:30 PM 74.8°F23.8°C 63.9°F17.7°C 69% 1.2 mph E1.9 kmh E 2.3 mph3.7 kmh 30.09 in1019.0 mb - 0.00 in0.0 mm 0.00 in0.0 mm
08:35 PM 74.5°F23.6°C 64.1°F17.8°C 70% Calm Calm 2.3 mph3.7 kmh 30.09 in1019.0 mb - 0.00 in0.0 mm 0.00 in0.0 mm
08:40 PM 74.1°F23.4°C 64.1°F17.8°C 71% Calm Calm -- 30.09 in1019.0 mb - 0.00 in0.0 mm 0.00 in0.0 mm
08:45 PM 73.8°F23.2°C 63.8°F17.7°C 71% 1.2 mph E1.9 kmh E 2.3 mph3.7 kmh 30.09 in1019.0 mb - 0.00 in0.0 mm 0.00 in0.0 mm
08:50 PM 73.5°F23.1°C 64.3°F17.9°C 73% 1.2 mph E1.9 kmh E 2.3 mph3.7 kmh 30.09 in1019.0 mb - 0.00 in0.0 mm 0.00 in0.0 mm
08:55 PM 73.4°F23.0°C 63.8°F17.7°C 72% 1.2 mph E1.9 kmh E 3.5 mph5.6 kmh 30.09 in1019.0 mb - 0.00 in0.0 mm 0.00 in0.0 mm
09:00 PM 73.0°F22.8°C 63.8°F17.7°C 73% 2.3 mph ESE3.7 kmh ESE 3.5 mph5.6 kmh 30.09 in1019.0 mb - 0.00 in0.0 mm 0.00 in0.0 mm
09:10 PM 72.4°F22.4°C 63.6°F17.6°C 74% 2.3 mph SE3.7 kmh SE 3.5 mph5.6 kmh 30.09 in1019.0 mb - 0.00 in0.0 mm 0.00 in0.0 mm
09:15 PM 72.3°F22.4°C 63.5°F17.5°C 74% 1.2 mph SE1.9 kmh SE 3.5 mph5.6 kmh 30.09 in1019.0 mb - 0.00 in0.0 mm 0.00 in0.0 mm
09:20 PM 72.3°F22.4°C 63.5°F17.5°C 74% 1.2 mph ESE1.9 kmh ESE 2.3 mph3.7 kmh 30.09 in1019.0 mb - 0.00 in0.0 mm 0.00 in0.0 mm
09:25 PM 72.2°F22.3°C 63.5°F17.5°C 74% Calm Calm 2.3 mph3.7 kmh 30.09 in1019.0 mb - 0.00 in0.0 mm 0.00 in0.0 mm
09:30 PM 72.1°F22.3°C 63.4°F17.4°C 74% 1.2 mph SE1.9 kmh SE 3.5 mph5.6 kmh 30.09 in1019.0 mb - 0.00 in0.0 mm 0.00 in0.0 mm
09:35 PM 72.1°F22.3°C 63.3°F17.4°C 74% 1.2 mph ESE1.9 kmh ESE 2.3 mph3.7 kmh 30.09 in1019.0 mb - 0.00 in0.0 mm 0.00 in0.0 mm
09:40 PM 72.1°F22.3°C 63.4°F17.4°C 74% 2.3 mph SE3.7 kmh SE 3.5 mph5.6 kmh 30.09 in1019.0 mb - 0.00 in0.0 mm 0.00 in0.0 mm
09:45 PM 72.1°F22.3°C 63.4°F17.4°C 74% 1.2 mph SE1.9 kmh SE 2.3 mph3.7 kmh 30.09 in1019.0 mb - 0.00 in0.0 mm 0.00 in0.0 mm
09:50 PM 72.2°F22.3°C 63.4°F17.4°C 74% 1.2 mph SE1.9 kmh SE 2.3 mph3.7 kmh 30.08 in1018.6 mb - 0.00 in0.0 mm 0.00 in0.0 mm
09:55 PM 72.2°F22.3°C 63.1°F17.3°C 73% 2.3 mph SE3.7 kmh SE 5.8 mph9.3 kmh 30.08 in1018.6 mb - 0.00 in0.0 mm 0.00 in0.0 mm
10:00 PM 72.3°F22.4°C 63.2°F17.3°C 73% 2.3 mph ESE3.7 kmh ESE 6.9 mph11.1 kmh 30.08 in1018.6 mb - 0.00 in0.0 mm 0.00 in0.0 mm
10:10 PM 72.0°F22.2°C 62.9°F17.2°C 73% 1.2 mph SE1.9 kmh SE 2.3 mph3.7 kmh 30.08 in1018.6 mb - 0.00 in0.0 mm 0.00 in0.0 mm
10:15 PM 71.9°F22.2°C 63.1°F17.3°C 74% Calm Calm 1.2 mph1.9 kmh 30.08 in1018.6 mb - 0.00 in0.0 mm 0.00 in0.0 mm
10:20 PM 71.6°F22.0°C 62.9°F17.2°C 74% 1.2 mph ESE1.9 kmh ESE 2.3 mph3.7 kmh 30.08 in1018.6 mb - 0.00 in0.0 mm 0.00 in0.0 mm
10:25 PM 71.4°F21.9°C 62.7°F17.1°C 74% 2.3 mph ESE3.7 kmh ESE 3.5 mph5.6 kmh 30.08 in1018.6 mb - 0.00 in0.0 mm 0.00 in0.0 mm
10:30 PM 71.4°F21.9°C 62.7°F17.1°C 74% 1.2 mph ESE1.9 kmh ESE 3.5 mph5.6 kmh 30.08 in1018.6 mb - 0.00 in0.0 mm 0.00 in0.0 mm
10:35 PM 71.2°F21.8°C 62.5°F16.9°C 74% 2.3 mph ESE3.7 kmh ESE 3.5 mph5.6 kmh 30.08 in1018.6 mb - 0.00 in0.0 mm 0.00 in0.0 mm
10:40 PM 71.0°F21.7°C 62.6°F17.0°C 75% 2.3 mph ESE3.7 kmh ESE 3.5 mph5.6 kmh 30.08 in1018.6 mb - 0.00 in0.0 mm 0.00 in0.0 mm
10:45 PM 70.8°F21.6°C 62.5°F16.9°C 75% 2.3 mph ESE3.7 kmh ESE 3.5 mph5.6 kmh 30.08 in1018.6 mb - 0.00 in0.0 mm 0.00 in0.0 mm
10:50 PM 70.7°F21.5°C 62.4°F16.9°C 75% 2.3 mph SE3.7 kmh SE 3.5 mph5.6 kmh 30.08 in1018.6 mb - 0.00 in0.0 mm 0.00 in0.0 mm
10:55 PM 70.7°F21.5°C 62.4°F16.9°C 75% 1.2 mph E1.9 kmh E 3.5 mph5.6 kmh 30.08 in1018.6 mb - 0.00 in0.0 mm 0.00 in0.0 mm
11:00 PM 70.6°F21.4°C 62.3°F16.8°C 75% 1.2 mph E1.9 kmh E 2.3 mph3.7 kmh 30.08 in1018.6 mb - 0.00 in0.0 mm 0.00 in0.0 mm
11:10 PM 70.4°F21.3°C 62.1°F16.7°C 75% 1.2 mph E1.9 kmh E 3.5 mph5.6 kmh 30.08 in1018.6 mb - 0.00 in0.0 mm 0.00 in0.0 mm
11:15 PM 70.2°F21.2°C 62.3°F16.8°C 76% 1.2 mph E1.9 kmh E 2.3 mph3.7 kmh 30.08 in1018.6 mb - 0.00 in0.0 mm 0.00 in0.0 mm
11:20 PM 70.1°F21.2°C 62.2°F16.8°C 76% 1.2 mph E1.9 kmh E 2.3 mph3.7 kmh 30.07 in1018.3 mb - 0.00 in0.0 mm 0.00 in0.0 mm
11:25 PM 70.1°F21.2°C 62.2°F16.8°C 76% 2.3 mph SE3.7 kmh SE 3.5 mph5.6 kmh 30.08 in1018.6 mb - 0.00 in0.0 mm 0.00 in0.0 mm
11:30 PM 70.1°F21.2°C 62.2°F16.8°C 76% 2.3 mph SE3.7 kmh SE 3.5 mph5.6 kmh 30.07 in1018.3 mb - 0.00 in0.0 mm 0.00 in0.0 mm
11:35 PM 70.0°F21.1°C 62.1°F16.7°C 76% 2.3 mph SE3.7 kmh SE 3.5 mph5.6 kmh 30.07 in1018.3 mb - 0.00 in0.0 mm 0.00 in0.0 mm
11:40 PM 70.0°F21.1°C 62.4°F16.9°C 77% 2.3 mph SE3.7 kmh SE 3.5 mph5.6 kmh 30.07 in1018.3 mb - 0.00 in0.0 mm 0.00 in0.0 mm
11:45 PM 69.7°F20.9°C 62.2°F16.8°C 77% 2.3 mph SE3.7 kmh SE 3.5 mph5.6 kmh 30.07 in1018.3 mb - 0.00 in0.0 mm 0.00 in0.0 mm
11:50 PM 69.6°F20.9°C 62.4°F16.9°C 78% 2.3 mph SE3.7 kmh SE 3.5 mph5.6 kmh 30.07 in1018.3 mb - 0.00 in0.0 mm 0.00 in0.0 mm
11:55 PM 69.3°F20.7°C 62.1°F16.7°C 78% 2.3 mph SE3.7 kmh SE 3.5 mph5.6 kmh 30.07 in1018.3 mb - 0.00 in0.0 mm 0.00 in0.0 mm